createdAt,value
2018-11-04T00:01:06.074Z,79.80
2018-11-04T00:03:36.890Z,78.30
2018-11-04T00:06:05.413Z,80.20
2018-11-04T00:08:33.741Z,80.20
2018-11-04T00:11:02.158Z,80.20
2018-11-04T00:13:30.568Z,80.00
2018-11-04T00:15:58.772Z,79.60
2018-11-04T00:18:27.429Z,78.30
2018-11-04T00:20:55.664Z,79.90
2018-11-04T00:23:23.893Z,78.30
2018-11-04T00:25:52.384Z,79.30
2018-11-04T00:28:20.826Z,79.70
2018-11-04T00:30:49.155Z,78.50
2018-11-04T00:33:17.471Z,78.60
2018-11-04T00:35:45.919Z,80.10
2018-11-04T00:38:14.488Z,80.10
2018-11-04T00:40:42.889Z,80.30
2018-11-04T00:43:11.149Z,80.50
2018-11-04T00:45:39.561Z,80.30
2018-11-04T00:48:07.830Z,80.10
2018-11-04T00:50:36.191Z,80.30
2018-11-04T00:53:04.971Z,79.60
2018-11-04T00:55:33.565Z,78.30
2018-11-04T00:58:02.029Z,80.20
2018-11-04T01:00:30.402Z,80.20
2018-11-04T01:02:58.872Z,81.20
2018-11-04T01:05:29.236Z,81.60
2018-11-04T01:07:57.568Z,81.70
2018-11-04T01:10:25.997Z,81.90
2018-11-04T01:12:54.252Z,81.30
2018-11-04T01:15:22.636Z,82.30
2018-11-04T01:17:51.004Z,82.20
2018-11-04T01:20:19.286Z,81.40
2018-11-04T01:22:47.657Z,82.60
2018-11-04T01:25:16.147Z,79.70
2018-11-04T01:27:44.420Z,80.50
2018-11-04T01:30:14.268Z,81.10
2018-11-04T01:32:42.898Z,81.80
2018-11-04T01:35:11.249Z,81.10
2018-11-04T01:37:39.560Z,81.90
2018-11-04T01:40:09.298Z,80.40
2018-11-04T01:42:38.180Z,82.20
2018-11-04T01:45:08.401Z,82.30
2018-11-04T01:47:36.800Z,82.90
2018-11-04T01:50:07.615Z,82.20
2018-11-04T01:52:35.959Z,83.00
2018-11-04T01:55:05.206Z,80.70
2018-11-04T01:57:33.571Z,83.00
2018-11-04T02:00:01.987Z,83.00
2018-11-04T02:02:30.597Z,82.90
2018-11-04T02:04:58.845Z,82.90
2018-11-04T02:07:40.606Z,83.00
2018-11-04T02:10:11.078Z,81.60
2018-11-04T02:12:39.730Z,82.90
2018-11-04T02:15:10.346Z,81.60
2018-11-04T02:17:38.865Z,82.00
2018-11-04T02:20:09.434Z,80.20
2018-11-04T02:22:38.008Z,81.30
2018-11-04T02:25:07.303Z,81.10
2018-11-04T02:27:35.670Z,80.40
2018-11-04T02:30:05.066Z,81.30
2018-11-04T02:32:33.355Z,81.00
2018-11-04T02:35:01.768Z,80.50
2018-11-04T02:37:30.045Z,81.30
2018-11-04T02:39:58.492Z,82.10
2018-11-04T02:42:26.885Z,81.50
2018-11-04T02:44:55.159Z,81.90
2018-11-04T02:47:23.408Z,81.40
2018-11-04T02:49:51.859Z,81.70
2018-11-04T02:52:20.191Z,82.30
2018-11-04T02:54:48.673Z,80.90
2018-11-04T02:57:17.241Z,81.60
2018-11-04T02:59:45.508Z,81.70
2018-11-04T03:02:13.878Z,81.90
2018-11-04T03:04:42.361Z,80.20
2018-11-04T03:07:10.615Z,81.40
2018-11-04T03:09:38.887Z,80.90
2018-11-04T03:12:07.448Z,81.00
2018-11-04T03:14:35.792Z,80.20
2018-11-04T03:17:04.191Z,81.70
2018-11-04T03:19:32.690Z,80.70
2018-11-04T03:22:01.138Z,82.40
2018-11-04T03:24:29.813Z,82.50
2018-11-04T03:26:58.011Z,83.00
2018-11-04T03:29:26.427Z,82.50
2018-11-04T03:31:54.695Z,82.90
2018-11-04T03:34:23.854Z,82.20
2018-11-04T03:36:52.243Z,81.80
2018-11-04T03:39:20.577Z,80.00
2018-11-04T03:41:49.016Z,81.90
2018-11-04T03:44:17.272Z,81.40
2018-11-04T03:46:45.703Z,81.60
2018-11-04T03:49:13.980Z,81.10
2018-11-04T03:51:42.249Z,80.80
2018-11-04T03:54:10.608Z,81.00
2018-11-04T03:56:38.935Z,79.70
2018-11-04T03:59:07.624Z,80.60
2018-11-04T04:01:36.075Z,81.80
2018-11-04T04:04:04.410Z,82.10
2018-11-04T04:06:32.761Z,82.70
2018-11-04T04:09:01.275Z,82.20
2018-11-04T04:11:29.744Z,80.10
2018-11-04T04:13:58.088Z,81.60
2018-11-04T04:16:26.404Z,79.90
2018-11-04T04:18:54.858Z,81.00
2018-11-04T04:21:24.207Z,80.80
2018-11-04T04:23:52.540Z,80.40
2018-11-04T04:26:20.792Z,80.50
2018-11-04T04:28:49.316Z,80.30
2018-11-04T04:31:17.578Z,80.00
2018-11-04T04:33:45.839Z,79.80
2018-11-04T04:36:14.263Z,79.30
2018-11-04T04:38:42.537Z,79.40
2018-11-04T04:41:10.773Z,79.40
2018-11-04T04:43:41.142Z,78.10
2018-11-04T04:46:09.479Z,78.10
2018-11-04T04:48:37.826Z,78.70
2018-11-04T04:51:06.315Z,78.90
2018-11-04T04:53:34.656Z,78.80
2018-11-04T04:56:03.556Z,79.10
2018-11-04T04:58:31.827Z,78.90
2018-11-04T05:01:00.281Z,79.10
2018-11-04T05:03:28.783Z,79.60
2018-11-04T05:05:57.120Z,78.80
2018-11-04T05:08:25.400Z,80.40
2018-11-04T05:10:53.876Z,80.40
2018-11-04T05:13:22.132Z,80.10
2018-11-04T05:15:51.221Z,81.20
2018-11-04T05:18:19.709Z,79.70
2018-11-04T05:20:48.024Z,80.80
2018-11-04T05:23:16.365Z,82.00
2018-11-04T05:25:44.839Z,81.10
2018-11-04T05:28:13.184Z,80.80
2018-11-04T05:30:41.464Z,80.10
2018-11-04T05:33:09.916Z,79.90
2018-11-04T05:35:39.121Z,80.00
2018-11-04T05:38:07.456Z,79.60
2018-11-04T05:40:35.906Z,79.30
2018-11-04T05:43:04.451Z,79.90
2018-11-04T05:45:32.752Z,80.20
2018-11-04T05:48:01.178Z,80.50
2018-11-04T05:50:29.458Z,79.00
2018-11-04T05:52:57.934Z,80.70
2018-11-04T05:55:26.304Z,80.80
2018-11-04T05:57:54.610Z,80.70
2018-11-04T06:00:23.083Z,80.00
2018-11-04T06:02:52.449Z,80.30
2018-11-04T06:05:20.745Z,80.90
2018-11-04T06:07:48.999Z,81.00
2018-11-04T06:10:17.380Z,80.10
2018-11-04T06:12:45.698Z,80.00
2018-11-04T06:15:13.986Z,79.50
2018-11-04T06:17:42.760Z,79.10
2018-11-04T06:20:12.281Z,80.40
2018-11-04T06:22:41.891Z,79.80
2018-11-04T06:25:10.195Z,79.60
2018-11-04T06:27:38.641Z,78.50
2018-11-04T06:30:10.132Z,77.90
2018-11-04T06:32:38.431Z,79.40
2018-11-04T06:35:07.737Z,79.10
2018-11-04T06:37:36.497Z,77.90
2018-11-04T06:40:06.362Z,78.20
2018-11-04T06:42:34.814Z,79.40
2018-11-04T06:45:03.380Z,79.60
2018-11-04T06:47:31.763Z,78.00
2018-11-04T06:50:01.251Z,79.50
2018-11-04T06:52:32.139Z,79.30
2018-11-04T06:55:00.699Z,79.80
2018-11-04T06:57:29.131Z,78.50
2018-11-04T06:59:57.785Z,80.30
2018-11-04T07:02:26.173Z,79.70
2018-11-04T07:04:54.705Z,79.60
2018-11-04T07:07:23.395Z,78.00
2018-11-04T07:09:51.752Z,79.70
2018-11-04T07:12:20.254Z,79.40
2018-11-04T07:14:48.772Z,79.70
2018-11-04T07:17:17.081Z,80.10
2018-11-04T07:19:46.634Z,80.50
2018-11-04T07:22:15.554Z,79.80
2018-11-04T07:24:44.948Z,79.20
2018-11-04T07:27:13.413Z,79.90
2018-11-04T07:29:41.822Z,78.80
2018-11-04T07:32:10.627Z,78.60
2018-11-04T07:34:40.253Z,80.10
2018-11-04T07:37:09.526Z,80.40
2018-11-04T07:39:37.920Z,79.60
2018-11-04T07:42:06.426Z,80.10
2018-11-04T07:44:37.067Z,80.80
2018-11-04T07:47:07.983Z,81.00
2018-11-04T07:49:36.383Z,79.30
2018-11-04T07:52:06.315Z,81.00
2018-11-04T07:54:34.905Z,80.90
2018-11-04T07:57:03.462Z,80.80
2018-11-04T07:59:31.794Z,80.50
2018-11-04T08:02:01.061Z,80.50
2018-11-04T08:04:29.424Z,80.00
2018-11-04T08:06:58.590Z,80.30
2018-11-04T08:09:27.076Z,81.00
2018-11-04T08:11:55.533Z,80.50
2018-11-04T08:14:24.038Z,79.80
2018-11-04T08:16:52.459Z,80.00
2018-11-04T08:19:20.816Z,80.70
2018-11-04T08:21:49.319Z,80.30
2018-11-04T08:24:17.646Z,79.80
2018-11-04T08:26:48.062Z,80.30
2018-11-04T08:29:16.394Z,80.30
2018-11-04T08:31:45.092Z,80.90
2018-11-04T08:34:13.692Z,80.90
2018-11-04T08:36:42.287Z,79.80
2018-11-04T08:39:10.963Z,81.20
2018-11-04T08:41:39.340Z,81.00
2018-11-04T08:44:07.905Z,81.00
2018-11-04T08:46:36.275Z,80.90
2018-11-04T08:49:04.980Z,80.70
2018-11-04T08:51:33.694Z,80.90
2018-11-04T08:54:01.996Z,80.70
2018-11-04T08:56:30.327Z,81.50
2018-11-04T08:58:58.763Z,81.40
2018-11-04T09:01:27.047Z,81.60
2018-11-04T09:03:55.820Z,81.30
2018-11-04T09:06:24.313Z,81.80
2018-11-04T09:08:52.678Z,81.90
2018-11-04T09:11:20.938Z,81.80
2018-11-04T09:13:49.377Z,82.50
2018-11-04T09:16:17.677Z,81.80
2018-11-04T09:18:46.032Z,82.60
2018-11-04T09:21:14.749Z,82.10
2018-11-04T09:23:43.098Z,83.00
2018-11-04T09:26:11.320Z,83.00
2018-11-04T09:28:39.974Z,83.40
2018-11-04T09:31:08.760Z,85.20
2018-11-04T09:33:37.083Z,85.10
2018-11-04T09:36:05.546Z,85.60
2018-11-04T09:38:33.883Z,85.20
2018-11-04T09:41:02.207Z,86.50
2018-11-04T09:43:30.553Z,86.80
2018-11-04T09:45:59.296Z,87.20
2018-11-04T09:48:27.552Z,85.70
2018-11-04T09:50:55.940Z,86.70
2018-11-04T09:53:24.262Z,86.10
2018-11-04T09:55:52.535Z,86.50
2018-11-04T09:58:20.791Z,86.30
2018-11-04T10:00:49.190Z,87.20
2018-11-04T10:03:17.507Z,86.50
2018-11-04T10:05:45.806Z,85.70
2018-11-04T10:08:14.534Z,85.50
2018-11-04T10:10:43.003Z,84.80
2018-11-04T10:13:11.370Z,85.40
2018-11-04T10:15:39.827Z,83.60
2018-11-04T10:18:08.074Z,84.60
2018-11-04T10:20:36.644Z,84.60
2018-11-04T10:23:05.392Z,83.40
2018-11-04T10:25:33.748Z,83.10
2018-11-04T10:28:02.111Z,85.00
2018-11-04T10:30:30.396Z,84.30
2018-11-04T10:32:58.562Z,85.60
2018-11-04T10:35:26.916Z,83.80
2018-11-04T10:37:55.247Z,83.20
2018-11-04T10:40:23.578Z,81.00
2018-11-04T10:42:52.088Z,80.00
2018-11-04T10:45:20.509Z,79.50
2018-11-04T10:47:48.809Z,80.50
2018-11-04T10:50:17.317Z,80.50
2018-11-04T10:52:45.819Z,78.80
2018-11-04T10:55:14.186Z,78.30
2018-11-04T10:57:42.664Z,79.00
2018-11-04T11:00:16.969Z,77.90
2018-11-04T11:02:45.530Z,78.90
2018-11-04T11:05:14.220Z,76.70
2018-11-04T11:07:42.748Z,79.40
2018-11-04T11:10:11.149Z,78.20
2018-11-04T11:12:39.664Z,79.00
2018-11-04T11:15:09.201Z,79.70
2018-11-04T11:17:37.537Z,78.60
2018-11-04T11:20:07.824Z,76.30
2018-11-04T11:22:36.950Z,74.40
2018-11-04T11:25:06.071Z,73.70
2018-11-04T11:27:34.379Z,75.30
2018-11-04T11:30:02.925Z,75.40
2018-11-04T11:32:31.464Z,77.30
2018-11-04T11:34:59.849Z,75.30
2018-11-04T11:37:28.194Z,74.50
2018-11-04T11:39:56.723Z,73.40
2018-11-04T11:42:25.213Z,73.50
2018-11-04T11:44:53.658Z,71.40
2018-11-04T11:47:22.080Z,69.20
2018-11-04T11:49:50.431Z,69.30
2018-11-04T11:52:18.992Z,68.00
2018-11-04T11:54:47.332Z,68.70
2018-11-04T11:57:15.691Z,66.90
2018-11-04T11:59:44.755Z,68.00
2018-11-04T12:02:13.256Z,63.50
2018-11-04T12:04:42.054Z,66.10
2018-11-04T12:07:10.554Z,65.80
2018-11-04T12:09:38.868Z,65.90
2018-11-04T12:12:07.302Z,65.40
2018-11-04T12:14:35.592Z,65.60
2018-11-04T12:17:03.886Z,64.30
2018-11-04T12:19:32.303Z,64.20
2018-11-04T12:22:00.743Z,65.00
2018-11-04T12:24:29.106Z,65.80
2018-11-04T12:26:57.624Z,65.80
2018-11-04T12:29:26.109Z,63.80
2018-11-04T12:31:54.411Z,62.90
2018-11-04T12:34:22.783Z,62.10
2018-11-04T12:36:51.233Z,63.50
2018-11-04T12:39:19.490Z,62.70
2018-11-04T12:41:47.844Z,62.00
2018-11-04T12:44:16.099Z,58.90
2018-11-04T12:46:44.521Z,60.60
2018-11-04T12:49:12.816Z,61.20
2018-11-04T12:51:41.196Z,61.00
2018-11-04T12:54:09.549Z,60.10
2018-11-04T12:56:37.892Z,60.50
2018-11-04T12:59:06.311Z,60.70
2018-11-04T13:01:34.543Z,59.50
2018-11-04T13:04:02.885Z,60.20
2018-11-04T13:06:34.182Z,57.70
2018-11-04T13:09:03.170Z,59.80
2018-11-04T13:11:31.526Z,59.20
2018-11-04T13:13:59.923Z,57.80
2018-11-04T13:16:28.535Z,57.40
2018-11-04T13:18:57.199Z,57.10
2018-11-04T13:21:25.693Z,56.80
2018-11-04T13:23:53.951Z,57.50
2018-11-04T13:26:22.230Z,58.80
2018-11-04T13:28:50.725Z,58.40
2018-11-04T13:31:19.131Z,57.80
2018-11-04T13:33:47.625Z,58.20
2018-11-04T13:36:16.069Z,59.80
2018-11-04T13:38:44.447Z,59.60
2018-11-04T13:41:13.003Z,61.80
2018-11-04T13:43:41.652Z,59.30
2018-11-04T13:46:10.614Z,60.20
2018-11-04T13:48:38.984Z,61.00
2018-11-04T13:51:07.536Z,61.10
2018-11-04T13:53:35.931Z,62.10
2018-11-04T13:56:04.474Z,61.50
2018-11-04T13:58:32.987Z,62.90
2018-11-04T14:01:01.527Z,60.20
2018-11-04T14:03:30.039Z,60.80
2018-11-04T14:05:58.572Z,60.30
2018-11-04T14:08:28.083Z,58.80
2018-11-04T14:10:56.526Z,58.80
2018-11-04T14:13:25.203Z,61.20
2018-11-04T14:15:53.963Z,60.10
2018-11-04T14:18:22.417Z,60.70
2018-11-04T14:20:51.186Z,60.10
2018-11-04T14:23:19.831Z,60.20
2018-11-04T14:25:48.373Z,59.90
2018-11-04T14:28:16.931Z,59.20
2018-11-04T14:30:45.431Z,58.90
2018-11-04T14:33:13.927Z,57.60
2018-11-04T14:35:42.810Z,55.80
2018-11-04T14:38:11.919Z,56.30
2018-11-04T14:40:40.501Z,56.20
2018-11-04T14:43:09.065Z,55.90
2018-11-04T14:45:37.739Z,55.70
2018-11-04T14:48:06.326Z,54.90
2018-11-04T14:50:34.767Z,54.50
2018-11-04T14:53:03.659Z,54.60
2018-11-04T14:55:32.198Z,54.80
2018-11-04T14:58:00.690Z,54.80
2018-11-04T15:00:33.752Z,55.50
2018-11-04T15:03:02.974Z,55.60
2018-11-04T15:05:31.685Z,56.00
2018-11-04T15:08:00.347Z,56.50
2018-11-04T15:10:29.758Z,56.60
2018-11-04T15:12:58.349Z,56.70
2018-11-04T15:15:27.049Z,57.50
2018-11-04T15:17:55.630Z,58.00
2018-11-04T15:20:24.099Z,58.20
2018-11-04T15:22:52.700Z,58.10
2018-11-04T15:25:22.254Z,58.00
2018-11-04T15:27:50.913Z,58.60
2018-11-04T15:32:53.942Z,59.50
2018-11-04T15:35:22.550Z,60.80
2018-11-04T15:37:51.716Z,62.00
2018-11-04T15:40:20.649Z,61.50
2018-11-04T15:42:49.211Z,61.60
2018-11-04T15:45:17.867Z,62.10
2018-11-04T15:47:46.481Z,63.10
2018-11-04T15:50:16.623Z,63.80
2018-11-04T15:52:46.357Z,63.60
2018-11-04T15:55:15.134Z,63.80
2018-11-04T15:57:43.741Z,63.50
2018-11-04T16:00:14.071Z,64.00
2018-11-04T16:02:42.523Z,64.20
2018-11-04T16:05:11.322Z,65.60
2018-11-04T16:07:39.897Z,65.40
2018-11-04T16:10:10.176Z,65.20
2018-11-04T16:12:39.379Z,65.80
2018-11-04T16:15:14.609Z,65.90
2018-11-04T16:17:43.757Z,66.40
2018-11-04T16:20:13.978Z,65.40
2018-11-04T16:22:43.197Z,66.00
2018-11-04T16:25:12.323Z,66.50
2018-11-04T16:27:41.546Z,67.40
2018-11-04T16:30:12.048Z,68.00
2018-11-04T16:32:40.496Z,68.50
2018-11-04T16:35:10.530Z,67.60
2018-11-04T16:37:39.789Z,68.80
2018-11-04T16:40:08.614Z,67.80
2018-11-04T16:42:37.634Z,68.90
2018-11-04T16:45:09.893Z,68.20
2018-11-04T16:47:38.872Z,68.40
2018-11-04T16:50:08.565Z,69.60
2018-11-04T16:52:37.149Z,69.10
2018-11-04T16:55:07.309Z,69.70
2018-11-04T16:57:35.653Z,70.30
2018-11-04T17:00:05.546Z,69.50
2018-11-04T17:02:33.985Z,70.00
2018-11-04T17:05:02.573Z,69.90
2018-11-04T17:07:31.199Z,70.90
2018-11-04T17:09:59.792Z,70.60
2018-11-04T17:12:29.426Z,70.70
2018-11-04T17:14:57.930Z,70.90
2018-11-04T17:17:26.349Z,71.90
2018-11-04T17:19:54.741Z,72.10
2018-11-04T17:22:23.291Z,72.00
2018-11-04T17:24:51.735Z,72.20
2018-11-04T17:27:20.174Z,72.90
2018-11-04T17:29:48.698Z,73.30
2018-11-04T17:32:18.035Z,75.60
2018-11-04T17:34:46.500Z,74.00
2018-11-04T17:37:16.316Z,75.50
2018-11-04T17:39:44.838Z,75.60
2018-11-04T17:42:13.302Z,75.30
2018-11-04T17:44:41.949Z,75.40
2018-11-04T17:47:10.334Z,75.10
2018-11-04T17:49:38.773Z,75.80
2018-11-04T17:52:07.260Z,75.70
2018-11-04T17:54:35.536Z,76.60
2018-11-04T17:57:04.063Z,76.20
2018-11-04T17:59:32.449Z,76.80
2018-11-04T18:02:00.918Z,76.00
2018-11-04T18:04:29.476Z,74.90
2018-11-04T18:06:57.875Z,76.80
2018-11-04T18:09:26.395Z,77.00
2018-11-04T18:11:54.942Z,76.50
2018-11-04T18:14:24.621Z,76.20
2018-11-04T18:16:52.928Z,76.70
2018-11-04T18:19:21.378Z,76.60
2018-11-04T18:21:49.674Z,77.40
2018-11-04T18:24:18.042Z,77.20
2018-11-04T18:26:46.735Z,77.60
2018-11-04T18:29:15.167Z,76.10
2018-11-04T18:31:43.514Z,76.50
2018-11-04T18:34:12.576Z,76.50
2018-11-04T18:36:41.099Z,76.20
2018-11-04T18:39:10.042Z,77.60
2018-11-04T18:41:38.716Z,76.30
2018-11-04T18:44:07.931Z,77.30
2018-11-04T18:46:36.749Z,77.20
2018-11-04T18:49:06.300Z,77.40
2018-11-04T18:51:34.831Z,77.30
2018-11-04T18:54:04.364Z,78.20
2018-11-04T18:56:32.890Z,78.00
2018-11-04T18:59:01.935Z,78.50
2018-11-04T19:01:30.254Z,77.90
2018-11-04T19:03:58.816Z,78.20
2018-11-04T19:06:27.498Z,78.70
2018-11-04T19:08:55.949Z,78.90
2018-11-04T19:11:24.604Z,78.60
2018-11-04T19:13:52.879Z,79.90
2018-11-04T19:16:21.200Z,78.70
2018-11-04T19:18:49.849Z,79.80
2018-11-04T19:21:18.236Z,79.10
2018-11-04T19:23:48.497Z,78.70
2018-11-04T19:26:16.980Z,79.80
2018-11-04T19:28:45.973Z,79.20
2018-11-04T19:31:14.671Z,79.50
2018-11-04T19:33:42.930Z,79.80
2018-11-04T19:36:11.220Z,79.30
2018-11-04T19:38:39.607Z,79.30
2018-11-04T19:41:07.891Z,79.20
2018-11-04T19:43:36.295Z,79.70
2018-11-04T19:46:04.751Z,79.50
2018-11-04T19:48:33.145Z,80.30
2018-11-04T19:51:01.564Z,79.00
2018-11-04T19:53:29.989Z,78.80
2018-11-04T19:55:59.065Z,79.30
2018-11-04T19:58:27.387Z,78.70
2018-11-04T20:00:55.848Z,78.40
2018-11-04T20:03:24.189Z,79.40
2018-11-04T20:05:52.675Z,80.70
2018-11-04T20:08:21.485Z,80.90
2018-11-04T20:10:49.766Z,80.30
2018-11-04T20:13:23.846Z,80.60
2018-11-04T20:15:52.423Z,80.00
2018-11-04T20:18:26.498Z,79.50
2018-11-04T20:20:54.808Z,79.90
2018-11-04T20:23:23.088Z,79.50
2018-11-04T20:25:57.784Z,80.40
2018-11-04T20:28:26.280Z,80.00
2018-11-04T20:30:54.708Z,79.80
2018-11-04T20:33:23.312Z,79.30
2018-11-04T20:35:51.814Z,79.80
2018-11-04T20:38:24.991Z,81.10
2018-11-04T20:40:58.998Z,80.70
2018-11-04T20:43:27.644Z,80.50
2018-11-04T20:45:55.998Z,80.30
2018-11-04T20:48:30.113Z,80.90
2018-11-04T20:51:02.631Z,80.50
2018-11-04T20:53:31.137Z,79.90
2018-11-04T20:56:05.159Z,80.60
2018-11-04T20:58:33.675Z,81.00
2018-11-04T21:01:02.098Z,80.30
2018-11-04T21:03:30.448Z,81.50
2018-11-04T21:05:59.156Z,82.00
2018-11-04T21:08:29.515Z,80.50
2018-11-04T21:10:57.818Z,81.60
2018-11-04T21:13:26.589Z,81.30
2018-11-04T21:15:55.054Z,80.50
2018-11-04T21:18:23.594Z,81.40
2018-11-04T21:20:52.244Z,82.30
2018-11-04T21:23:20.604Z,81.60
2018-11-04T21:25:49.048Z,81.70
2018-11-04T21:28:20.933Z,80.90
2018-11-04T21:30:49.295Z,80.40
2018-11-04T21:33:17.681Z,81.40
2018-11-04T21:35:46.148Z,81.20
2018-11-04T21:38:15.411Z,80.80
2018-11-04T21:40:43.817Z,80.20
2018-11-04T21:43:12.174Z,81.80
2018-11-04T21:45:41.406Z,80.90
2018-11-04T21:48:09.968Z,81.30
2018-11-04T21:50:38.345Z,81.00
2018-11-04T21:53:06.840Z,81.60
2018-11-04T21:55:35.355Z,81.50
2018-11-04T21:58:06.844Z,82.40
2018-11-04T22:00:35.135Z,82.20
2018-11-04T22:03:03.534Z,82.50
2018-11-04T22:05:31.961Z,82.50
2018-11-04T22:08:00.303Z,82.70
2018-11-04T22:10:28.771Z,81.40
2018-11-04T22:12:57.116Z,82.70
2018-11-04T22:15:25.394Z,82.70
2018-11-04T22:17:53.960Z,82.90
2018-11-04T22:20:22.256Z,82.90
2018-11-04T22:22:50.531Z,81.90
2018-11-04T22:25:18.895Z,83.80
2018-11-04T22:27:47.315Z,82.00
2018-11-04T22:30:15.742Z,82.80
2018-11-04T22:32:44.251Z,82.50
2018-11-04T22:35:12.676Z,83.20
2018-11-04T22:37:41.088Z,83.30
2018-11-04T22:40:11.074Z,82.20
2018-11-04T22:42:40.266Z,83.50
2018-11-04T22:45:10.000Z,82.90
2018-11-04T22:47:38.743Z,83.90
2018-11-04T22:50:11.426Z,82.90
2018-11-04T22:52:40.443Z,82.90
2018-11-04T22:55:09.175Z,82.80
2018-11-04T22:57:37.571Z,83.30
2018-11-04T23:00:13.346Z,83.50
2018-11-04T23:02:41.844Z,83.00
2018-11-04T23:05:15.822Z,83.00
2018-11-04T23:07:44.802Z,82.90
2018-11-04T23:10:13.392Z,82.80
2018-11-04T23:12:41.788Z,82.00
2018-11-04T23:15:10.184Z,82.30
2018-11-04T23:17:38.613Z,82.30
2018-11-04T23:20:07.855Z,81.90
2018-11-04T23:22:36.618Z,82.60
2018-11-04T23:25:06.685Z,82.20
2018-11-04T23:27:34.944Z,82.70
2018-11-04T23:30:04.603Z,81.80
2018-11-04T23:32:36.425Z,81.60
2018-11-04T23:35:05.372Z,81.50
2018-11-04T23:37:33.762Z,81.40
2018-11-04T23:40:02.187Z,81.50
2018-11-04T23:42:31.383Z,82.80
2018-11-04T23:45:00.558Z,81.30
2018-11-04T23:47:29.267Z,82.10
2018-11-04T23:49:57.882Z,81.90
2018-11-04T23:52:26.548Z,81.90
2018-11-04T23:54:55.082Z,82.00
2018-11-04T23:57:23.814Z,82.00
2018-11-04T23:59:52.579Z,81.40
